Sable Island, Canada
Current Conditions -  °F | °C
As of 12:55 PM on Friday 19 Dec 2014 (Local Time) from CESA Reporting Station
Drizzle Drizzle  
Wind Chill: 31°   Ceiling: Unl
Heat Index: 40°   Visibility: 9mi
Dew Point: 33°   Wind: 20mph
Humidity: 76%   Direction: 280°W
Pressure: 29.64"   Gusts: NA
Location:  43.95°N, 59.85°W
Report Text: CESA 191655Z AUTO 28017KT 9SM -DZ SCT025 04/01 A2964 RMK PK WND 28025/// T00450006 WSI/SWOB
Loading
Personal Weather Stations






























Interactive Weather Map New forecast layout! Learn more

10-Day Weather Forecast

Advertisements
Track Severe Weather on mobile